Time;durP1;ratioP1;P1;durP2;ratioP2;P2;SDS_P1;SDS_P2;PMS_P1;PMS_P2;Temp;Humidity;BMP_temperature;BMP_pressure;BME280_temperature;BME280_humidity;BME280_pressure;Samples;Min_cycle;Max_cycle;Signal;HPM_P1;HPM_P2
2023/04/01 00:01:41;;;;;;;9.68;5.03;;;;;;;10.47;69.23;93755.91;5062390;28;20241;-75
2023/04/01 00:04:08;;;;;;;8.85;4.57;;;;;;;10.53;69.65;93753.72;5056192;28;20244;-75
2023/04/01 00:06:35;;;;;;;9.65;4.40;;;;;;;10.55;69.78;93763.06;5055629;28;20208;-76
2023/04/01 00:09:01;;;;;;;10.07;4.32;;;;;;;10.58;69.64;93761.59;5061305;28;20204;-75
2023/04/01 00:11:30;;;;;;;8.07;3.65;;;;;;;10.45;70.09;93769.00;5062378;28;20608;-75
2023/04/01 00:13:56;;;;;;;7.28;3.58;;;;;;;10.40;70.10;93765.75;5049072;28;20200;-75
2023/04/01 00:16:23;;;;;;;13.10;5.03;;;;;;;10.38;70.32;93768.84;5061644;28;20561;-75
2023/04/01 00:18:50;;;;;;;9.55;3.65;;;;;;;10.34;70.15;93767.94;5056927;28;20247;-77
2023/04/01 00:21:18;;;;;;;10.80;5.03;;;;;;;10.27;69.35;93762.34;5054811;28;20204;-76
2023/04/01 00:23:45;;;;;;;17.67;5.28;;;;;;;10.21;69.70;93769.16;5058389;28;20231;-76
2023/04/01 00:26:14;;;;;;;12.18;6.25;;;;;;;10.19;70.11;93766.00;5061720;28;20211;-75
2023/04/01 00:28:42;;;;;;;17.45;5.43;;;;;;;10.17;70.54;93776.34;5058288;28;20258;-76
2023/04/01 00:31:10;;;;;;;10.48;5.00;;;;;;;10.11;70.58;93770.41;5061681;28;20208;-76
2023/04/01 00:33:37;;;;;;;10.60;4.55;;;;;;;10.16;70.31;93764.72;5058815;28;20261;-77
2023/04/01 00:36:09;;;;;;;13.32;5.65;;;;;;;10.28;70.75;93775.53;5067858;28;20211;-76
2023/04/01 00:38:37;;;;;;;18.95;7.57;;;;;;;10.25;70.02;93767.34;5068115;28;20207;-76
2023/04/01 00:41:04;;;;;;;11.23;5.88;;;;;;;10.23;70.91;93761.47;5054933;28;20318;-76
2023/04/01 00:43:31;;;;;;;20.67;7.47;;;;;;;10.25;71.17;93761.91;5056087;28;20204;-77
2023/04/01 00:45:59;;;;;;;10.75;5.43;;;;;;;10.03;71.21;93746.19;5061144;28;20353;-77
2023/04/01 00:48:31;;;;;;;10.95;4.57;;;;;;;9.98;71.96;93745.31;5048336;28;20227;-77
2023/04/01 00:51:01;;;;;;;18.17;5.65;;;;;;;9.83;72.55;93732.53;5061594;28;20670;-76
2023/04/01 00:53:31;;;;;;;10.70;5.40;;;;;;;9.89;73.55;93741.97;5060387;28;20195;-76
2023/04/01 00:56:02;;;;;;;20.33;6.65;;;;;;;9.94;73.99;93738.25;5061095;28;20203;-76
2023/04/01 00:58:32;;;;;;;8.88;4.70;;;;;;;10.00;73.45;93731.44;5061309;28;20287;-76
2023/04/01 01:01:01;;;;;;;11.73;5.72;;;;;;;9.96;73.33;93731.34;5055336;28;20794;-76
2023/04/01 01:03:29;;;;;;;9.82;4.85;;;;;;;10.03;73.26;93728.03;5054232;28;20286;-76
2023/04/01 01:06:12;;;;;;;12.32;4.82;;;;;;;10.02;72.87;93722.97;5059065;28;20196;-75
2023/04/01 01:09:03;;;;;;;10.35;5.47;;;;;;;9.89;73.35;93714.13;5060687;28;20228;-77
2023/04/01 01:11:37;;;;;;;12.70;4.45;;;;;;;9.73;72.96;93703.25;5062200;28;20678;-76
2023/04/01 01:14:13;;;;;;;10.40;4.93;;;;;;;9.76;72.71;93710.69;5059118;28;20280;-75
2023/04/01 01:16:46;;;;;;;8.23;3.55;;;;;;;9.73;73.05;93700.56;5061264;28;20203;-77
2023/04/01 01:19:34;;;;;;;12.98;4.03;;;;;;;9.63;73.03;93691.03;5058874;28;20250;-76
2023/04/01 01:22:22;;;;;;;6.07;3.90;;;;;;;9.78;73.00;93697.63;5061001;28;20211;-76
2023/04/01 01:25:02;;;;;;;3.45;2.40;;;;;;;9.98;71.36;93685.78;5066177;28;20223;-76
2023/04/01 01:27:30;;;;;;;13.68;4.35;;;;;;;10.08;71.16;93689.13;5054673;28;20234;-75
2023/04/01 01:30:20;;;;;;;7.20;3.03;;;;;;;10.24;69.62;93687.28;5053894;28;20752;-78
2023/04/01 01:33:02;;;;;;;6.00;3.50;;;;;;;10.26;69.50;93676.84;5053801;28;20203;-75
2023/04/01 01:35:35;;;;;;;5.90;3.45;;;;;;;10.25;68.95;93667.19;5054757;28;20662;-74
2023/04/01 01:38:05;;;;;;;12.25;3.22;;;;;;;10.23;69.31;93669.47;5060127;28;20203;-76
2023/04/01 01:40:34;;;;;;;7.88;4.00;;;;;;;10.16;69.72;93680.06;5060106;28;20214;-76
2023/04/01 01:43:06;;;;;;;6.88;3.40;;;;;;;10.21;69.29;93677.13;5054486;28;20271;-76
2023/04/01 01:45:36;;;;;;;7.93;3.03;;;;;;;10.32;68.03;93683.59;5053498;28;20924;-76
2023/04/01 01:48:05;;;;;;;8.20;3.15;;;;;;;10.24;67.40;93654.78;5067325;28;20241;-77
2023/04/01 01:50:35;;;;;;;10.52;3.22;;;;;;;10.44;67.44;93669.19;5053848;28;20297;-77
2023/04/01 01:53:06;;;;;;;6.05;2.70;;;;;;;10.49;66.48;93655.41;5067594;28;20222;-76
2023/04/01 01:55:36;;;;;;;9.52;3.03;;;;;;;10.52;67.12;93658.16;5054555;28;20195;-75
2023/04/01 01:58:09;;;;;;;7.68;3.10;;;;;;;10.42;67.39;93672.25;5071612;28;20211;-76
2023/04/01 02:00:37;;;;;;;12.43;3.30;;;;;;;10.34;67.17;93654.25;5057662;28;20245;-77
2023/04/01 02:03:05;;;;;;;4.18;2.60;;;;;;;10.41;66.88;93640.88;5059688;28;20265;-74
2023/04/01 02:05:34;;;;;;;5.07;2.40;;;;;;;10.55;66.04;93645.84;5056755;28;20677;-77
2023/04/01 02:08:06;;;;;;;5.22;2.38;;;;;;;10.53;65.63;93635.38;5058712;28;20230;-76
2023/04/01 02:10:37;;;;;;;8.57;2.72;;;;;;;10.62;66.21;93638.69;5057629;28;20639;-78
2023/04/01 02:13:08;;;;;;;4.75;2.58;;;;;;;10.57;66.04;93635.47;5070443;28;20198;-75
2023/04/01 02:15:42;;;;;;;4.40;2.42;;;;;;;10.64;65.53;93636.44;5059677;28;20206;-76
2023/04/01 02:18:10;;;;;;;9.15;2.95;;;;;;;10.63;66.60;93634.84;5055395;28;20232;-76
2023/04/01 02:20:40;;;;;;;7.28;3.03;;;;;;;10.50;66.38;93636.09;5060762;28;20213;-77
2023/04/01 02:23:08;;;;;;;11.32;3.63;;;;;;;10.54;65.23;93630.75;5074775;28;20705;-77
2023/04/01 02:25:37;;;;;;;7.43;2.60;;;;;;;10.54;65.33;93620.69;5079724;28;20209;-76
2023/04/01 02:28:05;;;;;;;4.60;2.42;;;;;;;10.62;65.90;93632.50;5070641;28;20223;-75
2023/04/01 02:30:35;;;;;;;8.23;2.60;;;;;;;10.57;66.91;93646.28;5066874;28;20203;-76
2023/04/01 02:33:02;;;;;;;5.88;2.70;;;;;;;10.53;67.07;93638.06;5057052;28;20253;-76
2023/04/01 02:35:29;;;;;;;5.75;3.25;;;;;;;10.42;68.11;93642.47;5058120;28;20663;-76
2023/04/01 02:37:58;;;;;;;8.15;2.95;;;;;;;10.44;67.49;93632.06;5064126;28;20200;-76
2023/04/01 02:40:24;;;;;;;6.00;2.50;;;;;;;10.37;67.12;93637.31;5050123;28;20303;-77
2023/04/01 02:42:51;;;;;;;4.97;2.70;;;;;;;10.36;67.52;93635.75;5064564;28;20257;-76
2023/04/01 02:45:19;;;;;;;10.40;3.90;;;;;;;10.29;68.05;93647.19;5051059;28;20207;-76
2023/04/01 02:47:45;;;;;;;5.53;2.70;;;;;;;10.17;69.02;93643.75;5064288;28;20278;-76
2023/04/01 02:50:12;;;;;;;8.88;2.97;;;;;;;10.15;68.48;93646.00;5068892;28;20356;-75
2023/04/01 02:52:39;;;;;;;4.10;2.80;;;;;;;10.14;68.50;93647.94;5061623;28;20256;-76
2023/04/01 02:55:08;;;;;;;7.15;3.30;;;;;;;10.31;68.33;93655.75;5061638;28;20203;-76
2023/04/01 02:57:35;;;;;;;6.25;3.08;;;;;;;10.40;68.25;93658.25;5056025;28;20203;-75
2023/04/01 03:00:02;;;;;;;5.15;2.72;;;;;;;10.52;68.28;93655.47;5057136;28;20302;-77
2023/04/01 03:02:28;;;;;;;6.63;3.08;;;;;;;10.44;68.39;93672.69;5063650;28;20223;-75
2023/04/01 03:04:55;;;;;;;6.25;2.80;;;;;;;10.40;67.21;93669.09;5049983;28;20203;-76
2023/04/01 03:07:22;;;;;;;5.90;2.85;;;;;;;10.50;67.71;93673.22;5068836;28;20207;-75
2023/04/01 03:09:49;;;;;;;5.57;3.25;;;;;;;10.45;68.08;93679.66;5056290;28;20223;-75
2023/04/01 03:12:17;;;;;;;8.90;3.47;;;;;;;10.47;68.60;93673.91;5062449;28;20609;-76
2023/04/01 03:14:43;;;;;;;6.55;2.47;;;;;;;10.44;67.34;93663.78;5062859;28;20803;-76
2023/04/01 03:17:10;;;;;;;9.88;2.90;;;;;;;10.33;67.65;93674.34;5057072;28;20249;-76
2023/04/01 03:19:37;;;;;;;10.55;4.07;;;;;;;10.40;67.41;93671.00;5055986;28;20300;-75
2023/04/01 03:22:04;;;;;;;10.48;3.28;;;;;;;10.44;68.06;93680.81;5061895;28;20204;-75
2023/04/01 03:24:30;;;;;;;5.82;2.58;;;;;;;10.56;68.08;93671.81;5064974;28;20223;-76
2023/04/01 03:26:57;;;;;;;11.07;2.88;;;;;;;10.68;67.81;93658.94;5060790;28;20199;-77
2023/04/01 03:29:25;;;;;;;10.25;3.67;;;;;;;10.34;70.37;93686.75;5060674;28;20223;-76
2023/04/01 03:31:52;;;;;;;5.30;2.90;;;;;;;10.38;71.89;93687.63;5060575;28;20204;-76
2023/04/01 03:34:19;;;;;;;4.80;2.83;;;;;;;10.42;71.45;93683.06;5063250;28;20206;-76
2023/04/01 03:36:46;;;;;;;11.10;3.05;;;;;;;10.39;70.49;93689.16;5058485;28;20843;-75
2023/04/01 03:39:13;;;;;;;15.88;3.70;;;;;;;10.33;71.45;93677.06;5056118;28;20268;-75
2023/04/01 03:41:39;;;;;;;8.82;3.15;;;;;;;10.26;70.43;93674.94;5059875;28;20202;-75
2023/04/01 03:44:06;;;;;;;7.55;3.50;;;;;;;10.20;70.50;93664.72;5065451;28;20273;-77
2023/04/01 03:46:35;;;;;;;7.80;3.13;;;;;;;10.18;71.53;93656.16;5058892;28;20207;-75
2023/04/01 03:49:02;;;;;;;10.70;3.75;;;;;;;10.12;72.07;93652.91;5062060;28;20239;-75
2023/04/01 03:51:29;;;;;;;8.43;3.40;;;;;;;10.15;73.27;93641.38;5058812;28;20206;-77
2023/04/01 03:53:55;;;;;;;7.82;2.95;;;;;;;10.20;71.11;93616.81;5055048;28;20203;-79
2023/04/01 03:56:22;;;;;;;10.30;2.78;;;;;;;10.34;71.06;93602.84;5058267;28;20200;-77
2023/04/01 03:58:49;;;;;;;4.63;2.45;;;;;;;10.37;70.37;93588.59;5062443;28;20250;-77
2023/04/01 04:01:18;;;;;;;6.53;3.08;;;;;;;10.44;70.70;93577.13;5058850;28;20207;-75
2023/04/01 04:03:46;;;;;;;5.10;3.10;;;;;;;10.46;69.45;93569.44;5055141;28;20257;-76
2023/04/01 04:06:14;;;;;;;7.35;2.78;;;;;;;10.45;70.86;93568.66;5057568;28;20578;-76
2023/04/01 04:08:41;;;;;;;8.20;2.75;;;;;;;10.46;71.02;93567.53;5061668;28;20713;-77
2023/04/01 04:11:08;;;;;;;9.43;3.35;;;;;;;10.34;70.33;93562.22;5060217;28;20199;-76
2023/04/01 04:13:35;;;;;;;9.57;4.05;;;;;;;10.45;70.10;93549.72;5054462;28;20199;-75
2023/04/01 04:16:03;;;;;;;7.78;3.42;;;;;;;10.58;70.25;93551.16;5056420;28;20238;-76
2023/04/01 04:18:30;;;;;;;10.27;5.15;;;;;;;10.64;68.19;93549.78;5066417;28;20296;-76
2023/04/01 04:20:58;;;;;;;9.00;3.53;;;;;;;10.66;67.60;93541.25;5055989;28;20211;-76
2023/04/01 04:23:25;;;;;;;6.70;3.55;;;;;;;10.65;67.61;93540.50;5060730;28;20223;-77
2023/04/01 04:25:56;;;;;;;8.23;3.00;;;;;;;10.49;67.73;93526.22;5061596;28;20299;-77
2023/04/01 04:28:23;;;;;;;8.88;3.20;;;;;;;10.50;68.47;93535.91;5055237;28;20223;-77
2023/04/01 04:30:50;;;;;;;11.60;3.15;;;;;;;10.40;68.60;93532.94;5063474;28;20244;-76
2023/04/01 04:33:17;;;;;;;8.45;4.70;;;;;;;10.40;68.19;93533.75;5055559;28;20747;-76
2023/04/01 04:35:44;;;;;;;7.43;4.68;;;;;;;10.43;68.25;93527.63;5067331;28;20207;-76
2023/04/01 04:38:12;;;;;;;6.45;3.63;;;;;;;10.41;67.74;93519.06;5055785;28;20244;-76
2023/04/01 04:40:40;;;;;;;10.00;4.28;;;;;;;10.43;67.42;93516.78;5053699;28;20204;-76
2023/04/01 04:43:07;;;;;;;11.30;3.88;;;;;;;10.41;67.39;93507.47;5056106;28;20263;-76
2023/04/01 04:45:34;;;;;;;9.50;5.28;;;;;;;10.48;67.37;93510.34;5054791;28;20269;-77
2023/04/01 04:48:00;;;;;;;5.63;3.03;;;;;;;10.44;66.14;93502.13;5060151;28;20207;-77
2023/04/01 04:50:27;;;;;;;5.78;3.17;;;;;;;10.39;66.71;93493.50;5061536;28;20206;-76
2023/04/01 04:52:54;;;;;;;11.63;3.33;;;;;;;10.46;66.81;93494.44;5056964;28;20195;-76
2023/04/01 04:55:23;;;;;;;9.10;4.10;;;;;;;10.29;69.36;93497.53;5063059;28;20310;-76
2023/04/01 04:57:50;;;;;;;6.82;3.58;;;;;;;10.16;69.77;93496.06;5068269;28;20203;-77
2023/04/01 05:00:17;;;;;;;6.97;3.63;;;;;;;10.11;70.13;93496.34;5054697;28;20212;-79
2023/04/01 05:02:44;;;;;;;10.25;4.70;;;;;;;10.03;69.77;93497.28;5058351;28;20208;-78
2023/04/01 05:05:11;;;;;;;5.82;3.05;;;;;;;10.07;69.66;93500.88;5050810;28;20211;-78
2023/04/01 05:07:38;;;;;;;8.68;3.80;;;;;;;10.05;69.73;93497.72;5067856;28;20286;-79
2023/04/01 05:10:08;;;;;;;7.50;3.63;;;;;;;10.13;69.83;93497.53;5053423;28;20584;-77
2023/04/01 05:12:38;;;;;;;10.38;4.18;;;;;;;10.16;69.66;93490.63;5055992;28;20704;-74
2023/04/01 05:15:07;;;;;;;7.20;3.53;;;;;;;10.23;69.52;93477.31;5060430;28;20625;-74
2023/04/01 05:17:34;;;;;;;13.60;4.78;;;;;;;10.28;69.54;93482.44;5056382;28;20210;-79
2023/04/01 05:20:02;;;;;;;8.18;4.95;;;;;;;10.37;70.05;93479.53;5055960;28;20227;-77
2023/04/01 05:22:29;;;;;;;10.48;4.78;;;;;;;10.42;69.93;93477.31;5056918;28;20207;-74
2023/04/01 05:24:55;;;;;;;11.32;3.72;;;;;;;9.98;70.75;93460.47;5054634;28;20272;-73
2023/04/01 05:27:22;;;;;;;10.80;4.10;;;;;;;10.01;70.85;93454.38;5060628;28;20199;-75
2023/04/01 05:29:50;;;;;;;11.55;4.55;;;;;;;10.06;71.45;93456.03;5059446;28;20233;-74
2023/04/01 05:32:17;;;;;;;12.20;5.60;;;;;;;10.21;71.08;93461.44;5051733;28;20253;-74
2023/04/01 05:34:45;;;;;;;10.75;5.22;;;;;;;10.50;70.96;93456.63;5053469;28;20207;-76
2023/04/01 05:37:12;;;;;;;10.75;5.40;;;;;;;11.09;69.06;93456.22;5053593;28;20208;-76
2023/04/01 05:39:39;;;;;;;7.25;4.55;;;;;;;12.23;66.29;93452.69;5062735;28;20252;-78
2023/04/01 05:42:07;;;;;;;10.43;4.55;;;;;;;14.84;58.00;93437.28;5063754;28;20683;-75
2023/04/01 05:44:34;;;;;;;9.63;4.95;;;;;;;16.75;49.56;93424.94;5046148;28;20685;-77
2023/04/01 05:47:02;;;;;;;15.35;6.78;;;;;;;16.50;51.10;93424.19;5060736;28;20203;-76
2023/04/01 05:49:29;;;;;;;11.68;4.65;;;;;;;18.14;46.46;93419.44;5046702;28;20227;-76
2023/04/01 05:51:56;;;;;;;8.48;4.93;;;;;;;19.74;43.07;93420.38;5059759;28;20317;-78
2023/04/01 05:54:23;;;;;;;14.43;4.38;;;;;;;19.36;43.40;93425.19;5054077;28;20257;-78
2023/04/01 05:56:50;;;;;;;8.32;3.90;;;;;;;20.06;41.72;93408.91;5052978;28;20714;-78
2023/04/01 05:59:17;;;;;;;10.23;3.88;;;;;;;19.79;40.95;93398.72;5066674;28;20203;-78
2023/04/01 06:01:44;;;;;;;12.40;4.53;;;;;;;20.26;39.71;93395.97;5066942;28;20203;-78
2023/04/01 06:04:15;;;;;;;8.70;4.45;;;;;;;21.24;38.46;93383.56;5058193;28;20208;-75
2023/04/01 06:06:42;;;;;;;7.53;4.57;;;;;;;22.04;36.24;93389.66;5060211;28;20666;-77
2023/04/01 06:09:16;;;;;;;9.85;4.30;;;;;;;20.24;38.97;93406.59;5046742;28;20353;-78
2023/04/01 06:11:55;;;;;;;9.02;4.50;;;;;;;21.16;37.37;93399.44;5060176;28;20211;-77
2023/04/01 06:14:32;;;;;;;8.70;4.20;;;;;;;19.16;40.22;93403.88;5058428;28;20283;-75
2023/04/01 06:17:14;;;;;;;8.10;4.00;;;;;;;17.77;42.90;93409.16;5053908;28;20207;-75
2023/04/01 06:19:52;;;;;;;6.68;3.42;;;;;;;15.93;46.88;93403.19;5066733;28;20578;-76
2023/04/01 06:22:43;;;;;;;8.15;3.75;;;;;;;15.28;49.40;93417.16;5056187;28;20203;-77
2023/04/01 06:25:31;;;;;;;12.98;3.92;;;;;;;16.48;47.55;93412.88;5054425;28;20839;-77
2023/04/01 06:28:17;;;;;;;11.25;4.00;;;;;;;16.67;46.10;93413.22;5053626;28;20214;-77
2023/04/01 06:30:48;;;;;;;7.53;3.70;;;;;;;16.61;46.27;93419.47;5062815;28;20253;-78
2023/04/01 06:33:32;;;;;;;6.38;3.58;;;;;;;16.45;45.98;93410.91;5054456;28;20207;-79
2023/04/01 06:36:25;;;;;;;11.43;3.70;;;;;;;16.22;46.40;93398.47;5053236;28;20209;-78
2023/04/01 06:39:12;;;;;;;10.85;3.35;;;;;;;16.27;46.29;93406.25;5053623;28;20200;-77
2023/04/01 06:42:00;;;;;;;6.03;3.45;;;;;;;14.92;49.59;93397.94;5066238;28;20203;-84
2023/04/01 06:44:37;;;;;;;10.70;3.92;;;;;;;14.36;51.53;93373.16;5056536;28;20210;-79
2023/04/01 06:47:24;;;;;;;6.75;3.63;;;;;;;13.84;53.21;93381.41;5056755;28;20200;-77
2023/04/01 06:49:59;;;;;;;9.05;4.13;;;;;;;13.30;54.65;93387.59;5059294;28;20227;-79
2023/04/01 06:52:38;;;;;;;10.35;4.22;;;;;;;13.57;54.90;93398.31;5058632;28;20210;-77
2023/04/01 06:55:22;;;;;;;11.50;4.93;;;;;;;13.48;55.20;93399.41;5069844;28;20233;-75
2023/04/01 06:57:52;;;;;;;11.70;4.70;;;;;;;13.37;55.70;93395.03;5060416;28;20200;-74
2023/04/01 07:00:27;;;;;;;9.93;5.15;;;;;;;12.93;57.77;93382.16;5062803;28;20286;-79
2023/04/01 07:03:01;;;;;;;9.60;4.68;;;;;;;12.71;58.79;93375.69;5061019;28;20668;-77
2023/04/01 07:05:32;;;;;;;11.35;5.15;;;;;;;12.66;59.58;93378.75;5063638;28;20203;-80
2023/04/01 07:08:02;;;;;;;11.13;4.90;;;;;;;13.13;58.59;93382.72;5049270;28;20196;-82
2023/04/01 07:10:36;;;;;;;10.73;5.80;;;;;;;13.14;58.61;93392.44;5048870;28;20293;-80
2023/04/01 07:13:09;;;;;;;11.60;5.13;;;;;;;13.31;58.84;93381.00;5064083;28;20220;-80
2023/04/01 07:15:40;;;;;;;11.35;4.45;;;;;;;13.36;58.86;93364.34;5060687;28;20859;-79
2023/04/01 07:18:16;;;;;;;10.35;4.20;;;;;;;13.00;60.42;93362.41;5052391;28;20234;-80
2023/04/01 07:20:43;;;;;;;6.97;3.90;;;;;;;13.07;60.21;93359.78;5058979;28;20206;-81
2023/04/01 07:23:22;;;;;;;8.63;4.43;;;;;;;13.24;60.40;93364.63;5071132;28;20210;-82
2023/04/01 07:25:54;;;;;;;8.18;3.75;;;;;;;13.04;60.36;93374.88;5075790;28;20615;-80
2023/04/01 07:28:22;;;;;;;8.35;4.05;;;;;;;13.15;60.42;93389.38;5048841;28;20214;-76
2023/04/01 07:31:00;;;;;;;9.27;4.05;;;;;;;13.43;60.19;93380.72;5062764;28;20231;-78
2023/04/01 07:33:34;;;;;;;12.68;4.28;;;;;;;13.85;59.35;93371.31;5060409;28;20242;-78
2023/04/01 07:36:07;;;;;;;6.28;3.47;;;;;;;13.97;58.43;93378.38;5052571;28;20202;-79
2023/04/01 07:38:45;;;;;;;7.75;4.10;;;;;;;14.17;58.00;93388.63;5058586;28;20625;-78
2023/04/01 07:41:23;;;;;;;10.80;4.70;;;;;;;14.15;57.63;93385.50;5062267;28;20207;-79
2023/04/01 07:44:03;;;;;;;10.75;4.93;;;;;;;13.95;57.96;93376.03;5062738;28;20203;-78
2023/04/01 07:46:47;;;;;;;7.97;4.25;;;;;;;13.72;58.81;93359.16;5057155;28;20199;-77
2023/04/01 07:49:18;;;;;;;7.20;3.60;;;;;;;13.47;60.31;93351.59;5056378;28;20275;-80
2023/04/01 07:51:58;;;;;;;10.95;4.75;;;;;;;13.45;60.76;93359.34;5057487;28;20199;-78
2023/04/01 07:54:32;;;;;;;11.15;4.57;;;;;;;13.73;60.52;93368.91;5056006;28;20742;-77
2023/04/01 07:57:05;;;;;;;9.57;4.75;;;;;;;13.94;59.71;93376.44;5055598;28;20195;-77
2023/04/01 07:59:43;;;;;;;10.43;4.18;;;;;;;13.91;59.54;93369.03;5068754;28;20210;-77
2023/04/01 08:02:23;;;;;;;7.95;4.03;;;;;;;13.90;59.73;93372.91;5055198;28;20203;-80
2023/04/01 08:05:01;;;;;;;8.50;4.30;;;;;;;13.67;59.45;93356.78;5056038;28;20207;-76
2023/04/01 08:07:37;;;;;;;10.38;4.43;;;;;;;13.70;59.68;93356.03;5048563;28;20213;-76
2023/04/01 08:10:14;;;;;;;13.80;4.45;;;;;;;13.91;59.69;93342.59;5050543;28;20226;-79
2023/04/01 08:12:52;;;;;;;10.82;4.43;;;;;;;14.16;59.49;93338.06;5068574;28;20672;-76
2023/04/01 08:15:26;;;;;;;11.07;4.25;;;;;;;14.38;58.68;93341.66;5055095;28;20915;-79
2023/04/01 08:18:03;;;;;;;9.90;4.80;;;;;;;14.78;57.77;93339.88;5055916;28;20617;-77
2023/04/01 08:20:37;;;;;;;7.90;4.53;;;;;;;14.58;58.51;93325.81;5056348;28;20210;-79
2023/04/01 08:23:09;;;;;;;11.80;4.55;;;;;;;14.55;58.67;93321.13;5071823;28;20238;-80
2023/04/01 08:25:40;;;;;;;8.05;4.30;;;;;;;15.24;56.89;93312.69;5072154;28;20298;-79
2023/04/01 08:28:17;;;;;;;8.82;4.13;;;;;;;15.61;54.99;93304.91;5054847;28;20252;-78
2023/04/01 08:30:46;;;;;;;7.57;4.60;;;;;;;15.19;56.54;93299.44;5063727;28;20223;-75
2023/04/01 08:33:18;;;;;;;12.63;5.13;;;;;;;15.37;56.36;93286.56;5054501;28;20747;-76
2023/04/01 08:35:51;;;;;;;14.55;4.78;;;;;;;15.29;55.37;93266.72;5067155;28;20203;-76
2023/04/01 08:38:24;;;;;;;9.65;3.97;;;;;;;15.98;53.96;93273.66;5055671;28;20783;-77
2023/04/01 08:41:30;;;;;;;8.88;3.97;;;;;;;16.64;52.05;93260.13;5063063;28;20652;-79
2023/04/01 08:44:21;;;;;;;8.48;4.07;;;;;;;17.77;49.92;93242.84;5059721;28;20205;-77
2023/04/01 08:47:17;;;;;;;13.68;4.15;;;;;;;17.62;49.71;93240.66;5059557;28;20215;-75
2023/04/01 08:50:32;;;;;;;7.07;3.83;;;;;;;17.82;48.11;93240.84;5056573;28;20226;-75
2023/04/01 08:53:05;;;;;;;5.80;3.50;;;;;;;17.81;48.69;93225.59;5014098;28;20215;-74
2023/04/01 08:55:44;;;;;;;12.50;3.83;;;;;;;17.39;49.81;93222.06;5042380;28;20253;-76
2023/04/01 08:58:43;;;;;;;9.35;4.10;;;;;;;17.93;48.67;93239.56;5049065;28;20241;-75
2023/04/01 09:01:18;;;;;;;8.23;3.30;;;;;;;18.62;46.34;93234.84;5056639;28;20199;-75
2023/04/01 09:04:11;;;;;;;5.30;3.15;;;;;;;18.50;45.35;93227.13;5055803;28;20252;-76
2023/04/01 09:06:46;;;;;;;7.63;3.30;;;;;;;17.64;46.77;93230.84;5061298;28;20207;-82
2023/04/01 09:09:57;;;;;;;8.85;3.50;;;;;;;17.50;46.47;93228.22;5055501;28;20206;-80
2023/04/01 09:12:40;;;;;;;11.48;2.65;;;;;;;16.93;47.49;93230.66;5066800;28;20202;-82
2023/04/01 09:15:56;;;;;;;6.15;3.33;;;;;;;17.01;47.96;93229.41;5054055;28;20218;-78
2023/04/01 09:18:40;;;;;;;8.43;3.22;;;;;;;17.54;47.11;93218.00;5052440;28;20234;-76
2023/04/01 09:21:38;;;;;;;8.13;3.55;;;;;;;17.61;46.59;93217.19;5053460;28;20200;-81
2023/04/01 09:24:26;;;;;;;6.70;2.70;;;;;;;17.45;45.11;93214.97;5061012;28;20196;-76
2023/04/01 09:27:09;;;;;;;6.97;2.58;;;;;;;17.41;45.43;93214.22;5054508;28;20233;-78
2023/04/01 09:30:04;;;;;;;5.38;2.63;;;;;;;17.37;44.78;93202.53;5063384;28;20191;-82
2023/04/01 09:33:29;;;;;;;5.43;2.72;;;;;;;17.30;45.15;93197.13;5056223;28;20202;-82
2023/04/01 09:36:08;;;;;;;9.13;2.70;;;;;;;17.41;45.20;93197.81;5057331;28;20199;-79
2023/04/01 09:38:56;;;;;;;6.72;2.20;;;;;;;17.21;45.18;93196.81;5058134;28;20268;-83
2023/04/01 09:41:31;;;;;;;8.73;3.03;;;;;;;17.04;45.08;93202.03;5067484;28;20264;-76
2023/04/01 09:44:05;;;;;;;7.18;2.38;;;;;;;17.25;44.19;93190.13;5054008;28;20214;-77
2023/04/01 09:46:55;;;;;;;8.25;2.67;;;;;;;17.30;43.92;93186.97;5057715;28;20828;-77
2023/04/01 09:49:44;;;;;;;9.73;2.88;;;;;;;17.28;44.65;93166.66;5066093;28;20203;-77
2023/04/01 09:52:26;;;;;;;7.57;2.78;;;;;;;17.81;43.29;93154.38;5056976;28;20207;-74
2023/04/01 09:55:07;;;;;;;7.40;2.78;;;;;;;18.69;42.78;93152.47;5062610;28;20289;-75
2023/04/01 09:58:03;;;;;;;9.50;3.03;;;;;;;19.64;40.34;93144.59;5050025;28;20195;-74
2023/04/01 10:00:48;;;;;;;13.75;4.90;;;;;;;20.06;39.48;93142.22;5063619;28;20199;-74
2023/04/01 10:03:38;;;;;;;9.15;3.08;;;;;;;20.86;37.86;93146.38;5055617;28;20261;-74
2023/04/01 10:06:51;;;;;;;6.45;2.58;;;;;;;20.37;38.03;93157.28;5056500;28;20686;-74
2023/04/01 10:09:50;;;;;;;5.35;2.33;;;;;;;19.06;39.80;93135.78;5056313;28;20570;-74
2023/04/01 10:12:58;;;;;;;5.38;2.35;;;;;;;18.98;41.35;93131.63;5015590;28;20250;-74
2023/04/01 10:16:10;;;;;;;5.78;2.65;;;;;;;19.18;41.27;93126.94;5059112;28;20204;-75
2023/04/01 10:19:00;;;;;;;9.18;2.88;;;;;;;19.52;40.49;93131.50;5057781;28;20238;-75
2023/04/01 10:22:00;;;;;;;8.40;2.53;;;;;;;19.08;41.48;93133.41;5058078;28;20261;-75
2023/04/01 10:25:15;;;;;;;9.70;3.10;;;;;;;19.87;40.14;93130.81;5065878;28;20260;-74
2023/04/01 10:27:58;;;;;;;7.93;2.58;;;;;;;20.86;37.78;93132.63;5063342;28;20203;-75
2023/04/01 10:31:13;;;;;;;7.68;2.22;;;;;;;19.16;41.94;93107.38;5053698;28;20231;-71
2023/04/01 10:34:23;;;;;;;9.18;3.00;;;;;;;18.02;43.39;93104.81;5057950;28;20196;-76
2023/04/01 10:36:57;;;;;;;13.38;3.42;;;;;;;18.29;43.78;93102.88;5050580;28;20208;-77
2023/04/01 10:40:07;;;;;;;7.97;3.83;;;;;;;17.92;44.30;93124.88;5055549;28;20202;-75
2023/04/01 10:43:05;;;;;;;9.93;2.97;;;;;;;17.56;45.74;93133.50;5007536;28;20205;-75
2023/04/01 10:46:00;;;;;;;6.30;2.75;;;;;;;16.99;46.19;93100.47;5056750;28;21403;-73
2023/04/01 10:49:06;;;;;;;4.65;2.40;;;;;;;17.29;44.03;93091.56;5058105;28;20643;-73
2023/04/01 10:52:09;;;;;;;18.38;2.88;;;;;;;17.98;39.95;93085.69;5049840;28;20300;-75
2023/04/01 10:54:50;;;;;;;12.07;3.25;;;;;;;17.29;45.07;93081.41;5059119;28;20209;-75
2023/04/01 10:57:40;;;;;;;5.85;2.78;;;;;;;17.47;45.28;93096.84;5056863;28;20214;-75
2023/04/01 11:00:35;;;;;;;11.43;2.08;;;;;;;17.45;40.70;93072.63;5056344;28;20842;-74
2023/04/01 11:03:47;;;;;;;9.13;3.20;;;;;;;17.71;40.32;93074.69;5030696;28;20728;-75
2023/04/01 11:07:07;;;;;;;9.30;3.50;;;;;;;18.05;39.52;93065.59;5062487;28;20222;-76
2023/04/01 11:10:20;;;;;;;10.75;2.92;;;;;;;18.51;38.32;93058.69;5021646;28;20596;-75
2023/04/01 11:13:14;;;;;;;4.75;1.70;;;;;;;18.17;40.23;93062.34;5049297;28;20259;-72
2023/04/01 11:16:27;;;;;;;7.97;2.63;;;;;;;18.43;39.83;93061.53;5058869;28;20390;-76
2023/04/01 11:19:24;;;;;;;7.18;2.30;;;;;;;18.48;38.30;93072.03;5057742;28;20299;-75
2023/04/01 11:22:09;;;;;;;5.00;2.22;;;;;;;18.35;38.87;93054.59;5057339;28;20705;-75
2023/04/01 11:25:02;;;;;;;7.90;2.10;;;;;;;18.28;39.13;93065.69;5082285;28;20680;-74
2023/04/01 11:27:57;;;;;;;7.88;2.30;;;;;;;18.27;40.67;93099.75;5069465;28;20252;-73
2023/04/01 11:30:34;;;;;;;8.13;1.85;;;;;;;18.15;40.82;93118.75;5059468;28;20230;-74
2023/04/01 11:33:10;;;;;;;8.88;2.08;;;;;;;17.65;44.05;93125.59;5064220;28;20211;-75
2023/04/01 11:35:58;;;;;;;7.25;1.95;;;;;;;17.33;46.84;93147.06;5061844;28;20690;-74
2023/04/01 11:38:42;;;;;;;4.50;2.05;;;;;;;16.88;45.63;93127.91;5058430;28;20207;-74
2023/04/01 11:41:25;;;;;;;6.40;1.83;;;;;;;16.76;51.01;93158.50;5055735;28;20207;-75
2023/04/01 11:44:11;;;;;;;6.07;2.78;;;;;;;16.62;50.15;93197.66;5055279;28;20203;-75
2023/04/01 11:46:43;;;;;;;8.60;2.92;;;;;;;15.66;57.24;93240.97;5058375;28;20203;-75
2023/04/01 11:49:29;;;;;;;5.15;2.17;;;;;;;14.80;61.32;93250.31;5062210;28;20605;-74
2023/04/01 11:52:16;;;;;;;8.52;2.20;;;;;;;14.07;68.53;93302.22;5062065;28;20231;-76
2023/04/01 11:54:56;;;;;;;10.13;2.05;;;;;;;12.79;76.37;93328.44;5059051;28;20203;-74
2023/04/01 11:57:49;;;;;;;14.63;2.60;;;;;;;12.28;83.81;93346.50;5055163;28;20210;-73
2023/04/01 12:00:41;;;;;;;4.13;1.35;;;;;;;11.65;87.03;93352.56;5053241;28;20274;-74
2023/04/01 12:03:39;;;;;;;4.03;1.60;;;;;;;11.58;88.87;93360.63;5060579;28;20211;-74
2023/04/01 12:06:15;;;;;;;5.72;1.35;;;;;;;11.44;90.28;93353.03;5058796;28;20203;-74
2023/04/01 12:08:53;;;;;;;4.15;1.42;;;;;;;11.31;90.14;93327.28;5055093;28;20199;-77
2023/04/01 12:11:30;;;;;;;10.32;2.53;;;;;;;11.31;91.77;93328.06;5055493;28;20322;-74
2023/04/01 12:14:04;;;;;;;2.67;1.95;;;;;;;11.35;91.58;93323.47;5056502;28;20602;-76
2023/04/01 12:16:42;;;;;;;2.50;1.38;;;;;;;11.57;94.70;93327.28;5054864;28;20212;-73